sensor_id;sensor_type;location;lat;lon;timestamp;P1;durP1;ratioP1;P2;durP2;ratioP2
85314;SDS011;75718;50.886;11.656;2024-02-23T04:43:12;3.00;;;0.75;;
85314;SDS011;75718;50.886;11.656;2024-02-23T04:45:38;1.02;;;0.40;;
85314;SDS011;75718;50.886;11.656;2024-02-23T04:48:04;0.33;;;0.20;;
85314;SDS011;75718;50.886;11.656;2024-02-23T04:50:29;1.17;;;0.43;;
85314;SDS011;75718;50.886;11.656;2024-02-23T04:52:54;0.30;;;0.30;;
85314;SDS011;75718;50.886;11.656;2024-02-23T04:55:19;1.43;;;0.43;;
85314;SDS011;75718;50.886;11.656;2024-02-23T04:57:45;0.83;;;0.30;;
85314;SDS011;75718;50.886;11.656;2024-02-23T05:00:10;1.13;;;0.30;;
85314;SDS011;75718;50.886;11.656;2024-02-23T05:02:36;0.32;;;0.32;;
85314;SDS011;75718;50.886;11.656;2024-02-23T05:05:02;1.00;;;0.50;;
85314;SDS011;75718;50.886;11.656;2024-02-23T05:07:29;0.50;;;0.50;;
85314;SDS011;75718;50.886;11.656;2024-02-23T05:09:56;4.85;;;0.65;;
85314;SDS011;75718;50.886;11.656;2024-02-23T05:12:21;0.50;;;0.20;;
85314;SDS011;75718;50.886;11.656;2024-02-23T05:14:47;0.63;;;0.53;;
85314;SDS011;75718;50.886;11.656;2024-02-23T05:17:12;3.07;;;0.33;;
85314;SDS011;75718;50.886;11.656;2024-02-23T05:19:52;1.25;;;0.30;;
85314;SDS011;75718;50.886;11.656;2024-02-23T05:22:17;0.73;;;0.40;;
85314;SDS011;75718;50.886;11.656;2024-02-23T05:24:44;0.70;;;0.30;;
85314;SDS011;75718;50.886;11.656;2024-02-23T05:27:10;0.47;;;0.22;;
85314;SDS011;75718;50.886;11.656;2024-02-23T05:29:35;0.25;;;0.25;;
85314;SDS011;75718;50.886;11.656;2024-02-23T05:32:01;5.90;;;0.63;;
85314;SDS011;75718;50.886;11.656;2024-02-23T05:34:26;0.70;;;0.30;;
85314;SDS011;75718;50.886;11.656;2024-02-23T05:36:51;0.40;;;0.40;;
85314;SDS011;75718;50.886;11.656;2024-02-23T05:39:17;0.40;;;0.20;;
85314;SDS011;75718;50.886;11.656;2024-02-23T05:41:42;2.67;;;0.70;;
85314;SDS011;75718;50.886;11.656;2024-02-23T05:44:08;3.85;;;0.50;;
85314;SDS011;75718;50.886;11.656;2024-02-23T05:46:36;1.50;;;0.77;;
85314;SDS011;75718;50.886;11.656;2024-02-23T05:49:02;0.70;;;0.47;;
85314;SDS011;75718;50.886;11.656;2024-02-23T05:51:29;0.20;;;0.20;;
85314;SDS011;75718;50.886;11.656;2024-02-23T05:53:54;0.43;;;0.35;;
85314;SDS011;75718;50.886;11.656;2024-02-23T05:56:20;0.60;;;0.40;;
85314;SDS011;75718;50.886;11.656;2024-02-23T05:58:45;0.52;;;0.32;;
85314;SDS011;75718;50.886;11.656;2024-02-23T06:01:11;1.10;;;0.37;;
85314;SDS011;75718;50.886;11.656;2024-02-23T06:03:36;0.63;;;0.43;;
85314;SDS011;75718;50.886;11.656;2024-02-23T06:06:01;1.37;;;0.50;;
85314;SDS011;75718;50.886;11.656;2024-02-23T06:08:27;0.80;;;0.25;;
85314;SDS011;75718;50.886;11.656;2024-02-23T06:10:52;0.97;;;0.40;;
85314;SDS011;75718;50.886;11.656;2024-02-23T06:13:17;1.90;;;0.30;;
85314;SDS011;75718;50.886;11.656;2024-02-23T06:15:42;0.20;;;0.20;;
85314;SDS011;75718;50.886;11.656;2024-02-23T06:18:08;4.05;;;0.50;;
85314;SDS011;75718;50.886;11.656;2024-02-23T06:20:33;0.75;;;0.57;;
85314;SDS011;75718;50.886;11.656;2024-02-23T06:22:59;0.70;;;0.30;;
85314;SDS011;75718;50.886;11.656;2024-02-23T06:25:24;0.50;;;0.40;;
85314;SDS011;75718;50.886;11.656;2024-02-23T06:27:49;0.70;;;0.63;;
85314;SDS011;75718;50.886;11.656;2024-02-23T06:30:14;0.20;;;0.20;;
85314;SDS011;75718;50.886;11.656;2024-02-23T06:32:40;3.93;;;0.43;;
85314;SDS011;75718;50.886;11.656;2024-02-23T06:35:05;0.50;;;0.50;;
85314;SDS011;75718;50.886;11.656;2024-02-23T06:37:31;0.70;;;0.40;;
85314;SDS011;75718;50.886;11.656;2024-02-23T06:39:57;0.30;;;0.30;;
85314;SDS011;75718;50.886;11.656;2024-02-23T06:42:22;0.63;;;0.30;;
85314;SDS011;75718;50.886;11.656;2024-02-23T06:44:48;1.30;;;0.52;;
85314;SDS011;75718;50.886;11.656;2024-02-23T06:47:14;0.40;;;0.17;;
85314;SDS011;75718;50.886;11.656;2024-02-23T06:49:42;3.10;;;0.30;;
85314;SDS011;75718;50.886;11.656;2024-02-23T06:52:08;0.25;;;0.25;;
85314;SDS011;75718;50.886;11.656;2024-02-23T06:54:34;0.63;;;0.38;;
85314;SDS011;75718;50.886;11.656;2024-02-23T06:57:00;1.02;;;0.38;;
85314;SDS011;75718;50.886;11.656;2024-02-23T06:59:25;0.85;;;0.30;;
85314;SDS011;75718;50.886;11.656;2024-02-23T07:01:51;0.73;;;0.22;;
85314;SDS011;75718;50.886;11.656;2024-02-23T07:04:17;0.70;;;0.30;;
85314;SDS011;75718;50.886;11.656;2024-02-23T07:06:42;1.00;;;0.50;;
85314;SDS011;75718;50.886;11.656;2024-02-23T07:09:08;0.63;;;0.40;;
85314;SDS011;75718;50.886;11.656;2024-02-23T07:11:34;1.17;;;0.35;;
85314;SDS011;75718;50.886;11.656;2024-02-23T07:13:59;2.40;;;0.93;;
85314;SDS011;75718;50.886;11.656;2024-02-23T07:16:25;0.57;;;0.30;;
85314;SDS011;75718;50.886;11.656;2024-02-23T07:18:50;2.03;;;0.40;;
85314;SDS011;75718;50.886;11.656;2024-02-23T07:21:18;0.43;;;0.40;;
85314;SDS011;75718;50.886;11.656;2024-02-23T07:23:44;1.58;;;0.45;;
85314;SDS011;75718;50.886;11.656;2024-02-23T07:26:09;1.40;;;0.30;;
85314;SDS011;75718;50.886;11.656;2024-02-23T07:28:34;1.37;;;0.40;;
85314;SDS011;75718;50.886;11.656;2024-02-23T07:30:59;0.43;;;0.38;;
85314;SDS011;75718;50.886;11.656;2024-02-23T07:33:25;0.20;;;0.20;;
85314;SDS011;75718;50.886;11.656;2024-02-23T07:35:50;0.40;;;0.30;;
85314;SDS011;75718;50.886;11.656;2024-02-23T07:38:15;0.50;;;0.30;;
85314;SDS011;75718;50.886;11.656;2024-02-23T07:40:42;1.02;;;0.43;;
85314;SDS011;75718;50.886;11.656;2024-02-23T07:43:08;1.80;;;0.50;;
85314;SDS011;75718;50.886;11.656;2024-02-23T07:45:36;1.33;;;0.80;;
85314;SDS011;75718;50.886;11.656;2024-02-23T07:48:01;0.68;;;0.32;;
85314;SDS011;75718;50.886;11.656;2024-02-23T07:50:27;2.10;;;0.57;;
85314;SDS011;75718;50.886;11.656;2024-02-23T07:52:52;1.70;;;0.63;;
85314;SDS011;75718;50.886;11.656;2024-02-23T07:55:17;2.72;;;0.60;;
85314;SDS011;75718;50.886;11.656;2024-02-23T07:57:43;2.00;;;0.33;;
85314;SDS011;75718;50.886;11.656;2024-02-23T08:00:08;1.90;;;0.82;;
85314;SDS011;75718;50.886;11.656;2024-02-23T08:02:34;2.25;;;0.30;;
85314;SDS011;75718;50.886;11.656;2024-02-23T08:05:00;1.58;;;0.40;;
85314;SDS011;75718;50.886;11.656;2024-02-23T08:07:25;1.40;;;0.50;;
85314;SDS011;75718;50.886;11.656;2024-02-23T08:09:53;4.07;;;1.17;;
85314;SDS011;75718;50.886;11.656;2024-02-23T08:12:18;3.13;;;0.90;;
85314;SDS011;75718;50.886;11.656;2024-02-23T08:14:43;1.10;;;0.40;;
85314;SDS011;75718;50.886;11.656;2024-02-23T08:17:10;1.60;;;0.60;;
85314;SDS011;75718;50.886;11.656;2024-02-23T08:19:36;1.42;;;0.50;;
85314;SDS011;75718;50.886;11.656;2024-02-23T08:22:01;1.80;;;0.70;;
85314;SDS011;75718;50.886;11.656;2024-02-23T08:24:26;0.90;;;0.70;;
85314;SDS011;75718;50.886;11.656;2024-02-23T08:26:51;1.20;;;0.60;;
85314;SDS011;75718;50.886;11.656;2024-02-23T08:29:16;0.40;;;0.40;;
85314;SDS011;75718;50.886;11.656;2024-02-23T08:31:42;2.53;;;0.30;;
85314;SDS011;75718;50.886;11.656;2024-02-23T08:34:07;0.67;;;0.40;;
85314;SDS011;75718;50.886;11.656;2024-02-23T08:36:32;1.40;;;0.40;;
85314;SDS011;75718;50.886;11.656;2024-02-23T08:38:57;2.27;;;1.47;;
85314;SDS011;75718;50.886;11.656;2024-02-23T08:41:23;1.90;;;0.47;;
85314;SDS011;75718;50.886;11.656;2024-02-23T08:43:48;2.23;;;0.63;;
85314;SDS011;75718;50.886;11.656;2024-02-23T08:46:15;2.45;;;0.50;;
85314;SDS011;75718;50.886;11.656;2024-02-23T08:48:40;2.55;;;0.40;;
85314;SDS011;75718;50.886;11.656;2024-02-23T08:51:05;1.30;;;0.60;;
85314;SDS011;75718;50.886;11.656;2024-02-23T08:53:30;1.67;;;0.37;;
85314;SDS011;75718;50.886;11.656;2024-02-23T08:55:56;1.33;;;0.33;;
85314;SDS011;75718;50.886;11.656;2024-02-23T08:58:21;5.67;;;0.70;;
85314;SDS011;75718;50.886;11.656;2024-02-23T09:00:46;1.30;;;0.53;;
85314;SDS011;75718;50.886;11.656;2024-02-23T09:03:11;0.97;;;0.60;;
85314;SDS011;75718;50.886;11.656;2024-02-23T09:05:37;0.77;;;0.50;;
85314;SDS011;75718;50.886;11.656;2024-02-23T09:08:02;1.17;;;0.60;;
85314;SDS011;75718;50.886;11.656;2024-02-23T09:10:27;1.92;;;0.50;;
85314;SDS011;75718;50.886;11.656;2024-02-23T09:12:53;1.70;;;0.87;;
85314;SDS011;75718;50.886;11.656;2024-02-23T09:15:18;0.60;;;0.60;;
85314;SDS011;75718;50.886;11.656;2024-02-23T09:17:43;1.33;;;0.53;;
85314;SDS011;75718;50.886;11.656;2024-02-23T09:20:09;1.30;;;0.50;;
85314;SDS011;75718;50.886;11.656;2024-02-23T09:22:35;0.88;;;0.50;;
85314;SDS011;75718;50.886;11.656;2024-02-23T09:25:01;1.35;;;0.55;;
85314;SDS011;75718;50.886;11.656;2024-02-23T09:27:27;2.87;;;0.70;;
85314;SDS011;75718;50.886;11.656;2024-02-23T09:29:52;1.67;;;0.50;;
85314;SDS011;75718;50.886;11.656;2024-02-23T09:32:17;0.60;;;0.40;;
85314;SDS011;75718;50.886;11.656;2024-02-23T09:34:42;1.57;;;0.60;;
85314;SDS011;75718;50.886;11.656;2024-02-23T09:37:08;2.85;;;0.40;;
85314;SDS011;75718;50.886;11.656;2024-02-23T09:39:33;0.40;;;0.40;;
85314;SDS011;75718;50.886;11.656;2024-02-23T09:41:59;1.52;;;0.70;;
85314;SDS011;75718;50.886;11.656;2024-02-23T09:44:27;0.90;;;0.70;;
85314;SDS011;75718;50.886;11.656;2024-02-23T09:46:59;2.75;;;1.27;;
85314;SDS011;75718;50.886;11.656;2024-02-23T09:49:26;2.45;;;0.60;;
85314;SDS011;75718;50.886;11.656;2024-02-23T09:51:51;1.13;;;0.57;;
85314;SDS011;75718;50.886;11.656;2024-02-23T09:54:19;2.97;;;1.00;;
85314;SDS011;75718;50.886;11.656;2024-02-23T09:56:44;0.93;;;0.40;;
85314;SDS011;75718;50.886;11.656;2024-02-23T09:59:10;2.55;;;0.50;;
85314;SDS011;75718;50.886;11.656;2024-02-23T10:01:35;1.10;;;0.55;;
85314;SDS011;75718;50.886;11.656;2024-02-23T10:04:01;3.42;;;0.70;;
85314;SDS011;75718;50.886;11.656;2024-02-23T10:06:31;1.05;;;0.50;;
85314;SDS011;75718;50.886;11.656;2024-02-23T10:08:56;2.65;;;0.60;;
85314;SDS011;75718;50.886;11.656;2024-02-23T10:11:22;1.77;;;0.60;;
85314;SDS011;75718;50.886;11.656;2024-02-23T10:13:49;1.20;;;0.90;;
85314;SDS011;75718;50.886;11.656;2024-02-23T10:16:15;0.73;;;0.40;;
85314;SDS011;75718;50.886;11.656;2024-02-23T10:18:42;0.80;;;0.40;;
85314;SDS011;75718;50.886;11.656;2024-02-23T10:21:08;1.60;;;0.80;;
85314;SDS011;75718;50.886;11.656;2024-02-23T10:23:33;3.78;;;0.75;;
85314;SDS011;75718;50.886;11.656;2024-02-23T10:25:58;0.70;;;0.30;;
85314;SDS011;75718;50.886;11.656;2024-02-23T10:28:24;1.15;;;0.60;;
85314;SDS011;75718;50.886;11.656;2024-02-23T10:30:49;3.70;;;1.20;;
85314;SDS011;75718;50.886;11.656;2024-02-23T10:33:14;1.75;;;0.55;;
85314;SDS011;75718;50.886;11.656;2024-02-23T10:35:40;2.90;;;0.75;;
85314;SDS011;75718;50.886;11.656;2024-02-23T10:38:07;2.45;;;0.50;;
85314;SDS011;75718;50.886;11.656;2024-02-23T10:43:05;2.67;;;0.70;;
85314;SDS011;75718;50.886;11.656;2024-02-23T10:45:38;1.42;;;0.60;;
85314;SDS011;75718;50.886;11.656;2024-02-23T10:48:05;3.38;;;0.85;;
85314;SDS011;75718;50.886;11.656;2024-02-23T10:50:33;2.08;;;0.68;;
85314;SDS011;75718;50.886;11.656;2024-02-23T10:53:00;4.70;;;0.65;;
85314;SDS011;75718;50.886;11.656;2024-02-23T10:55:25;2.15;;;0.50;;
85314;SDS011;75718;50.886;11.656;2024-02-23T10:57:52;1.15;;;0.63;;
85314;SDS011;75718;50.886;11.656;2024-02-23T11:00:18;1.20;;;0.50;;
85314;SDS011;75718;50.886;11.656;2024-02-23T11:02:48;1.98;;;0.60;;
85314;SDS011;75718;50.886;11.656;2024-02-23T11:05:16;0.88;;;0.30;;
85314;SDS011;75718;50.886;11.656;2024-02-23T11:07:47;2.15;;;0.60;;
85314;SDS011;75718;50.886;11.656;2024-02-23T11:10:16;4.30;;;1.42;;
85314;SDS011;75718;50.886;11.656;2024-02-23T11:12:42;3.83;;;0.73;;
85314;SDS011;75718;50.886;11.656;2024-02-23T11:15:08;2.80;;;0.88;;
85314;SDS011;75718;50.886;11.656;2024-02-23T11:17:35;1.30;;;0.60;;
85314;SDS011;75718;50.886;11.656;2024-02-23T11:20:04;1.35;;;0.52;;
85314;SDS011;75718;50.886;11.656;2024-02-23T11:22:32;0.52;;;0.40;;
85314;SDS011;75718;50.886;11.656;2024-02-23T11:25:02;2.10;;;0.68;;
85314;SDS011;75718;50.886;11.656;2024-02-23T11:27:33;2.95;;;1.00;;
85314;SDS011;75718;50.886;11.656;2024-02-23T11:30:02;1.67;;;0.60;;
85314;SDS011;75718;50.886;11.656;2024-02-23T11:32:39;0.98;;;0.70;;
85314;SDS011;75718;50.886;11.656;2024-02-23T11:35:07;1.30;;;1.00;;
85314;SDS011;75718;50.886;11.656;2024-02-23T11:37:43;1.23;;;0.40;;
85314;SDS011;75718;50.886;11.656;2024-02-23T11:40:24;6.57;;;0.60;;
85314;SDS011;75718;50.886;11.656;2024-02-23T11:42:50;0.73;;;0.35;;
85314;SDS011;75718;50.886;11.656;2024-02-23T11:45:16;0.85;;;0.65;;
85314;SDS011;75718;50.886;11.656;2024-02-23T11:47:41;1.10;;;0.47;;
85314;SDS011;75718;50.886;11.656;2024-02-23T11:50:10;1.85;;;0.35;;
85314;SDS011;75718;50.886;11.656;2024-02-23T11:52:38;1.25;;;0.40;;
85314;SDS011;75718;50.886;11.656;2024-02-23T11:55:04;1.02;;;0.47;;
85314;SDS011;75718;50.886;11.656;2024-02-23T11:57:30;1.13;;;0.47;;
85314;SDS011;75718;50.886;11.656;2024-02-23T11:59:57;0.65;;;0.30;;
85314;SDS011;75718;50.886;11.656;2024-02-23T12:02:23;5.17;;;0.50;;
85314;SDS011;75718;50.886;11.656;2024-02-23T12:04:49;1.70;;;0.50;;
85314;SDS011;75718;50.886;11.656;2024-02-23T12:07:14;1.97;;;0.60;;
85314;SDS011;75718;50.886;11.656;2024-02-23T12:09:40;2.42;;;0.88;;
85314;SDS011;75718;50.886;11.656;2024-02-23T12:12:06;0.32;;;0.30;;
85314;SDS011;75718;50.886;11.656;2024-02-23T12:14:31;0.70;;;0.40;;
85314;SDS011;75718;50.886;11.656;2024-02-23T12:16:57;1.83;;;0.40;;
85314;SDS011;75718;50.886;11.656;2024-02-23T12:19:22;1.60;;;0.52;;
85314;SDS011;75718;50.886;11.656;2024-02-23T12:21:48;0.50;;;0.30;;
85314;SDS011;75718;50.886;11.656;2024-02-23T12:24:13;0.60;;;0.60;;
85314;SDS011;75718;50.886;11.656;2024-02-23T12:26:38;0.93;;;0.30;;
85314;SDS011;75718;50.886;11.656;2024-02-23T12:29:04;2.65;;;0.70;;
85314;SDS011;75718;50.886;11.656;2024-02-23T12:31:33;1.45;;;0.50;;
85314;SDS011;75718;50.886;11.656;2024-02-23T12:33:59;0.52;;;0.50;;
85314;SDS011;75718;50.886;11.656;2024-02-23T12:36:25;2.47;;;0.80;;
85314;SDS011;75718;50.886;11.656;2024-02-23T12:38:50;0.57;;;0.55;;
85314;SDS011;75718;50.886;11.656;2024-02-23T12:41:15;2.30;;;1.10;;
85314;SDS011;75718;50.886;11.656;2024-02-23T12:43:41;3.20;;;0.60;;
85314;SDS011;75718;50.886;11.656;2024-02-23T12:46:06;1.73;;;0.43;;
85314;SDS011;75718;50.886;11.656;2024-02-23T12:48:33;1.27;;;0.70;;
85314;SDS011;75718;50.886;11.656;2024-02-23T12:50:59;0.93;;;0.30;;
85314;SDS011;75718;50.886;11.656;2024-02-23T12:56:01;2.83;;;0.80;;
85314;SDS011;75718;50.886;11.656;2024-02-23T12:58:27;1.42;;;0.60;;
85314;SDS011;75718;50.886;11.656;2024-02-23T13:00:52;0.50;;;0.40;;
85314;SDS011;75718;50.886;11.656;2024-02-23T13:03:18;1.58;;;0.80;;
85314;SDS011;75718;50.886;11.656;2024-02-23T13:05:43;2.70;;;0.63;;
85314;SDS011;75718;50.886;11.656;2024-02-23T13:08:08;3.37;;;0.70;;
85314;SDS011;75718;50.886;11.656;2024-02-23T13:10:34;1.83;;;0.60;;
85314;SDS011;75718;50.886;11.656;2024-02-23T13:13:00;2.08;;;0.50;;
85314;SDS011;75718;50.886;11.656;2024-02-23T13:15:25;2.90;;;0.70;;
85314;SDS011;75718;50.886;11.656;2024-02-23T13:17:50;2.77;;;0.73;;
85314;SDS011;75718;50.886;11.656;2024-02-23T13:20:16;0.77;;;0.40;;
85314;SDS011;75718;50.886;11.656;2024-02-23T13:22:41;2.23;;;0.70;;
85314;SDS011;75718;50.886;11.656;2024-02-23T13:25:06;0.60;;;0.40;;
85314;SDS011;75718;50.886;11.656;2024-02-23T13:27:32;1.52;;;0.60;;
85314;SDS011;75718;50.886;11.656;2024-02-23T13:29:57;1.13;;;0.93;;
85314;SDS011;75718;50.886;11.656;2024-02-23T13:32:22;3.33;;;0.63;;
85314;SDS011;75718;50.886;11.656;2024-02-23T13:34:47;2.20;;;0.80;;
85314;SDS011;75718;50.886;11.656;2024-02-23T13:37:17;2.40;;;0.70;;
85314;SDS011;75718;50.886;11.656;2024-02-23T13:39:42;1.83;;;0.50;;
85314;SDS011;75718;50.886;11.656;2024-02-23T13:42:07;2.47;;;0.50;;
85314;SDS011;75718;50.886;11.656;2024-02-23T13:44:34;0.80;;;0.50;;
85314;SDS011;75718;50.886;11.656;2024-02-23T13:47:00;1.40;;;0.70;;
85314;SDS011;75718;50.886;11.656;2024-02-23T13:49:25;4.22;;;0.70;;
85314;SDS011;75718;50.886;11.656;2024-02-23T13:51:50;0.60;;;0.47;;
85314;SDS011;75718;50.886;11.656;2024-02-23T13:54:16;1.73;;;0.70;;
85314;SDS011;75718;50.886;11.656;2024-02-23T13:56:41;3.87;;;0.60;;
85314;SDS011;75718;50.886;11.656;2024-02-23T13:59:06;0.90;;;0.50;;
85314;SDS011;75718;50.886;11.656;2024-02-23T14:01:31;1.80;;;0.67;;
85314;SDS011;75718;50.886;11.656;2024-02-23T14:03:57;2.17;;;0.70;;
85314;SDS011;75718;50.886;11.656;2024-02-23T14:06:22;1.23;;;0.40;;
85314;SDS011;75718;50.886;11.656;2024-02-23T14:08:47;2.37;;;1.07;;
85314;SDS011;75718;50.886;11.656;2024-02-23T14:11:13;0.75;;;0.55;;
85314;SDS011;75718;50.886;11.656;2024-02-23T14:13:38;1.25;;;0.60;;
85314;SDS011;75718;50.886;11.656;2024-02-23T14:16:04;2.13;;;0.60;;
85314;SDS011;75718;50.886;11.656;2024-02-23T14:18:30;3.50;;;1.20;;
85314;SDS011;75718;50.886;11.656;2024-02-23T14:20:57;1.27;;;0.80;;
85314;SDS011;75718;50.886;11.656;2024-02-23T14:23:22;2.03;;;0.60;;
85314;SDS011;75718;50.886;11.656;2024-02-23T14:25:48;1.73;;;0.60;;
85314;SDS011;75718;50.886;11.656;2024-02-23T14:28:13;0.73;;;0.50;;
85314;SDS011;75718;50.886;11.656;2024-02-23T14:30:39;1.70;;;0.60;;
85314;SDS011;75718;50.886;11.656;2024-02-23T14:33:05;2.97;;;0.82;;
85314;SDS011;75718;50.886;11.656;2024-02-23T14:35:31;3.40;;;1.05;;
85314;SDS011;75718;50.886;11.656;2024-02-23T14:37:56;1.00;;;0.60;;
85314;SDS011;75718;50.886;11.656;2024-02-23T14:40:21;2.43;;;0.57;;
85314;SDS011;75718;50.886;11.656;2024-02-23T14:42:46;1.53;;;0.63;;
85314;SDS011;75718;50.886;11.656;2024-02-23T14:45:12;2.10;;;0.70;;
85314;SDS011;75718;50.886;11.656;2024-02-23T14:47:38;3.75;;;0.60;;
85314;SDS011;75718;50.886;11.656;2024-02-23T14:50:04;1.80;;;0.60;;
85314;SDS011;75718;50.886;11.656;2024-02-23T14:52:30;1.73;;;0.60;;
85314;SDS011;75718;50.886;11.656;2024-02-23T14:54:55;3.77;;;0.77;;
85314;SDS011;75718;50.886;11.656;2024-02-23T14:57:20;0.97;;;0.50;;
85314;SDS011;75718;50.886;11.656;2024-02-23T14:59:46;2.35;;;0.70;;
85314;SDS011;75718;50.886;11.656;2024-02-23T15:02:14;1.35;;;0.90;;
85314;SDS011;75718;50.886;11.656;2024-02-23T15:04:46;1.95;;;0.57;;
85314;SDS011;75718;50.886;11.656;2024-02-23T15:07:11;3.97;;;0.60;;
85314;SDS011;75718;50.886;11.656;2024-02-23T15:09:37;0.98;;;0.50;;
85314;SDS011;75718;50.886;11.656;2024-02-23T15:12:02;3.57;;;0.70;;
85314;SDS011;75718;50.886;11.656;2024-02-23T15:14:27;1.90;;;0.60;;
85314;SDS011;75718;50.886;11.656;2024-02-23T15:16:53;1.33;;;0.53;;
85314;SDS011;75718;50.886;11.656;2024-02-23T15:19:18;1.17;;;0.50;;
85314;SDS011;75718;50.886;11.656;2024-02-23T15:21:43;1.47;;;0.60;;
85314;SDS011;75718;50.886;11.656;2024-02-23T15:24:09;1.75;;;1.02;;
85314;SDS011;75718;50.886;11.656;2024-02-23T15:26:35;2.00;;;0.40;;
85314;SDS011;75718;50.886;11.656;2024-02-23T15:29:00;5.10;;;0.77;;
85314;SDS011;75718;50.886;11.656;2024-02-23T15:31:28;1.40;;;0.35;;
85314;SDS011;75718;50.886;11.656;2024-02-23T15:33:53;3.45;;;0.70;;
85314;SDS011;75718;50.886;11.656;2024-02-23T15:36:21;2.75;;;0.43;;
85314;SDS011;75718;50.886;11.656;2024-02-23T15:38:46;4.50;;;0.83;;
85314;SDS011;75718;50.886;11.656;2024-02-23T15:41:11;2.00;;;0.70;;
85314;SDS011;75718;50.886;11.656;2024-02-23T15:43:37;2.80;;;0.70;;
85314;SDS011;75718;50.886;11.656;2024-02-23T15:46:02;0.90;;;0.50;;
85314;SDS011;75718;50.886;11.656;2024-02-23T15:48:27;0.63;;;0.55;;
85314;SDS011;75718;50.886;11.656;2024-02-23T15:50:53;1.77;;;0.50;;
85314;SDS011;75718;50.886;11.656;2024-02-23T15:53:18;3.40;;;0.60;;
85314;SDS011;75718;50.886;11.656;2024-02-23T15:55:43;3.17;;;0.70;;
85314;SDS011;75718;50.886;11.656;2024-02-23T15:58:09;2.53;;;0.70;;
85314;SDS011;75718;50.886;11.656;2024-02-23T16:00:35;1.80;;;0.68;;
85314;SDS011;75718;50.886;11.656;2024-02-23T16:03:00;3.13;;;0.60;;
85314;SDS011;75718;50.886;11.656;2024-02-23T16:05:25;3.03;;;0.60;;
85314;SDS011;75718;50.886;11.656;2024-02-23T16:07:51;2.37;;;0.80;;
85314;SDS011;75718;50.886;11.656;2024-02-23T16:10:16;1.20;;;0.40;;
85314;SDS011;75718;50.886;11.656;2024-02-23T16:12:43;3.92;;;0.75;;
85314;SDS011;75718;50.886;11.656;2024-02-23T16:15:15;1.45;;;0.52;;
85314;SDS011;75718;50.886;11.656;2024-02-23T16:17:40;2.73;;;0.80;;
85314;SDS011;75718;50.886;11.656;2024-02-23T16:20:06;2.80;;;0.60;;
85314;SDS011;75718;50.886;11.656;2024-02-23T16:22:31;1.92;;;0.90;;
85314;SDS011;75718;50.886;11.656;2024-02-23T16:24:57;1.67;;;0.90;;
85314;SDS011;75718;50.886;11.656;2024-02-23T16:27:22;1.57;;;0.87;;
85314;SDS011;75718;50.886;11.656;2024-02-23T16:29:47;0.90;;;0.70;;
85314;SDS011;75718;50.886;11.656;2024-02-23T16:32:12;3.40;;;0.80;;
85314;SDS011;75718;50.886;11.656;2024-02-23T16:34:38;2.78;;;0.65;;
85314;SDS011;75718;50.886;11.656;2024-02-23T16:37:04;3.08;;;0.73;;
85314;SDS011;75718;50.886;11.656;2024-02-23T16:39:29;3.77;;;0.83;;
85314;SDS011;75718;50.886;11.656;2024-02-23T16:41:54;2.17;;;0.83;;
85314;SDS011;75718;50.886;11.656;2024-02-23T16:44:19;1.03;;;0.43;;
85314;SDS011;75718;50.886;11.656;2024-02-23T16:46:49;2.03;;;0.60;;
85314;SDS011;75718;50.886;11.656;2024-02-23T16:49:14;2.78;;;1.83;;
85314;SDS011;75718;50.886;11.656;2024-02-23T16:51:40;0.93;;;0.40;;
85314;SDS011;75718;50.886;11.656;2024-02-23T16:54:05;2.90;;;0.55;;
85314;SDS011;75718;50.886;11.656;2024-02-23T16:56:31;1.77;;;0.60;;
85314;SDS011;75718;50.886;11.656;2024-02-23T16:58:56;3.50;;;0.77;;
85314;SDS011;75718;50.886;11.656;2024-02-23T17:01:21;1.30;;;0.80;;
85314;SDS011;75718;50.886;11.656;2024-02-23T17:03:46;2.97;;;0.60;;
85314;SDS011;75718;50.886;11.656;2024-02-23T17:06:12;1.98;;;0.70;;
85314;SDS011;75718;50.886;11.656;2024-02-23T17:08:37;1.17;;;0.60;;
85314;SDS011;75718;50.886;11.656;2024-02-23T17:11:05;1.63;;;0.50;;
85314;SDS011;75718;50.886;11.656;2024-02-23T17:13:31;3.67;;;1.27;;
85314;SDS011;75718;50.886;11.656;2024-02-23T17:15:56;2.08;;;1.02;;
85314;SDS011;75718;50.886;11.656;2024-02-23T17:18:22;1.27;;;0.90;;
85314;SDS011;75718;50.886;11.656;2024-02-23T17:20:50;4.63;;;2.28;;
85314;SDS011;75718;50.886;11.656;2024-02-23T17:23:16;7.75;;;4.13;;
85314;SDS011;75718;50.886;11.656;2024-02-23T17:25:41;3.50;;;2.47;;
85314;SDS011;75718;50.886;11.656;2024-02-23T17:28:06;3.53;;;2.63;;
85314;SDS011;75718;50.886;11.656;2024-02-23T17:30:32;2.67;;;1.45;;
85314;SDS011;75718;50.886;11.656;2024-02-23T17:32:57;4.17;;;1.60;;
85314;SDS011;75718;50.886;11.656;2024-02-23T17:35:22;4.17;;;0.90;;
85314;SDS011;75718;50.886;11.656;2024-02-23T17:37:48;5.73;;;1.40;;
85314;SDS011;75718;50.886;11.656;2024-02-23T17:40:14;3.42;;;1.85;;
85314;SDS011;75718;50.886;11.656;2024-02-23T17:42:39;3.80;;;2.15;;
85314;SDS011;75718;50.886;11.656;2024-02-23T17:45:05;2.63;;;1.10;;
85314;SDS011;75718;50.886;11.656;2024-02-23T17:47:31;17.35;;;7.55;;
85314;SDS011;75718;50.886;11.656;2024-02-23T17:49:57;18.05;;;8.07;;
85314;SDS011;75718;50.886;11.656;2024-02-23T17:52:22;140.25;;;62.17;;
85314;SDS011;75718;50.886;11.656;2024-02-23T17:54:48;86.95;;;41.00;;
85314;SDS011;75718;50.886;11.656;2024-02-23T17:57:13;49.50;;;22.70;;
85314;SDS011;75718;50.886;11.656;2024-02-23T17:59:38;25.30;;;13.47;;
85314;SDS011;75718;50.886;11.656;2024-02-23T18:02:03;7.70;;;3.40;;
85314;SDS011;75718;50.886;11.656;2024-02-23T18:04:29;6.67;;;3.13;;
85314;SDS011;75718;50.886;11.656;2024-02-23T18:06:54;1.90;;;1.25;;
85314;SDS011;75718;50.886;11.656;2024-02-23T18:09:20;2.53;;;1.38;;
85314;SDS011;75718;50.886;11.656;2024-02-23T18:11:45;3.63;;;2.72;;
85314;SDS011;75718;50.886;11.656;2024-02-23T18:14:13;2.42;;;1.45;;
85314;SDS011;75718;50.886;11.656;2024-02-23T18:16:38;3.92;;;1.60;;
85314;SDS011;75718;50.886;11.656;2024-02-23T18:19:03;2.30;;;1.73;;
85314;SDS011;75718;50.886;11.656;2024-02-23T18:21:30;2.13;;;1.48;;
85314;SDS011;75718;50.886;11.656;2024-02-23T18:23:55;1.45;;;0.90;;
85314;SDS011;75718;50.886;11.656;2024-02-23T18:26:21;1.83;;;1.00;;
85314;SDS011;75718;50.886;11.656;2024-02-23T18:28:46;1.97;;;1.53;;
85314;SDS011;75718;50.886;11.656;2024-02-23T18:31:11;2.50;;;1.20;;
85314;SDS011;75718;50.886;11.656;2024-02-23T18:33:36;3.37;;;1.20;;
85314;SDS011;75718;50.886;11.656;2024-02-23T18:36:02;2.37;;;1.10;;
85314;SDS011;75718;50.886;11.656;2024-02-23T18:38:28;2.45;;;1.05;;
85314;SDS011;75718;50.886;11.656;2024-02-23T18:40:53;2.43;;;0.93;;
85314;SDS011;75718;50.886;11.656;2024-02-23T18:43:18;2.60;;;1.93;;
85314;SDS011;75718;50.886;11.656;2024-02-23T18:45:44;2.37;;;0.90;;
85314;SDS011;75718;50.886;11.656;2024-02-23T18:48:09;3.53;;;0.83;;
85314;SDS011;75718;50.886;11.656;2024-02-23T18:50:34;2.20;;;0.77;;
85314;SDS011;75718;50.886;11.656;2024-02-23T18:52:59;1.70;;;0.87;;
85314;SDS011;75718;50.886;11.656;2024-02-23T18:55:25;1.90;;;1.10;;
85314;SDS011;75718;50.886;11.656;2024-02-23T18:57:50;1.65;;;1.00;;
85314;SDS011;75718;50.886;11.656;2024-02-23T19:00:15;2.77;;;1.03;;
85314;SDS011;75718;50.886;11.656;2024-02-23T19:02:41;2.25;;;0.65;;
85314;SDS011;75718;50.886;11.656;2024-02-23T19:05:07;2.90;;;1.35;;
85314;SDS011;75718;50.886;11.656;2024-02-23T19:07:33;3.17;;;1.45;;
85314;SDS011;75718;50.886;11.656;2024-02-23T19:09:58;2.23;;;1.00;;
85314;SDS011;75718;50.886;11.656;2024-02-23T19:12:24;13.33;;;6.03;;